Time;durP1;ratioP1;P1;durP2;ratioP2;P2;SDS_P1;SDS_P2;PMS_P1;PMS_P2;Temp;Humidity;BMP_temperature;BMP_pressure;BME280_temperature;BME280_humidity;BME280_pressure;Samples;Min_cycle;Max_cycle;Signal;HPM_P1;HPM_P2
2020/12/24 00:01:55;;;;;;;1.60;0.60;;;21.20;59.20;;;;;;5032299;28;20029;-49
2020/12/24 00:04:20;;;;;;;1.33;0.50;;;21.20;59.20;;;;;;5031349;28;20041;-48
2020/12/24 00:06:46;;;;;;;0.60;0.57;;;21.30;59.10;;;;;;5032302;28;20049;-50
2020/12/24 00:09:12;;;;;;;1.23;0.50;;;21.20;59.00;;;;;;5031963;28;20364;-49
2020/12/24 00:11:37;;;;;;;1.35;0.55;;;21.20;59.00;;;;;;5031195;28;20060;-48
2020/12/24 00:14:04;;;;;;;0.90;0.60;;;21.30;59.00;;;;;;5030624;28;20076;-45
2020/12/24 00:16:30;;;;;;;1.13;0.43;;;21.20;58.90;;;;;;5031623;28;20029;-48
2020/12/24 00:18:55;;;;;;;0.70;0.43;;;21.20;58.80;;;;;;5032084;28;20080;-48
2020/12/24 00:21:21;;;;;;;2.38;0.57;;;21.20;58.90;;;;;;5031298;28;20030;-54
2020/12/24 00:23:47;;;;;;;1.92;0.57;;;21.20;58.80;;;;;;5031671;28;20029;-51
2020/12/24 00:26:12;;;;;;;0.75;0.45;;;21.20;58.70;;;;;;5032036;28;20098;-50
2020/12/24 00:28:38;;;;;;;0.82;0.40;;;21.20;58.70;;;;;;5031104;28;20057;-48
2020/12/24 00:31:06;;;;;;;1.40;0.70;;;21.20;58.60;;;;;;5031925;28;20092;-53
2020/12/24 00:33:31;;;;;;;1.02;0.47;;;21.20;58.60;;;;;;5030990;28;20029;-49
2020/12/24 00:35:57;;;;;;;0.77;0.35;;;21.20;58.50;;;;;;5031629;28;20056;-51
2020/12/24 00:38:23;;;;;;;1.27;0.60;;;21.20;58.50;;;;;;5030860;28;20030;-48
2020/12/24 00:40:48;;;;;;;1.08;0.40;;;21.20;58.40;;;;;;5031479;28;20029;-47
2020/12/24 00:43:14;;;;;;;0.82;0.52;;;21.20;58.40;;;;;;5030184;28;20046;-62
2020/12/24 00:45:39;;;;;;;0.88;0.50;;;21.20;58.30;;;;;;5031048;28;20029;-49
2020/12/24 00:48:05;;;;;;;1.52;0.60;;;21.20;58.30;;;;;;5031913;28;20481;-48
2020/12/24 00:50:31;;;;;;;0.75;0.40;;;21.20;58.20;;;;;;5030767;28;20040;-51
2020/12/24 00:52:56;;;;;;;0.80;0.50;;;21.20;58.20;;;;;;5030894;28;20767;-47
2020/12/24 00:55:23;;;;;;;0.75;0.75;;;21.20;58.20;;;;;;5030779;28;20479;-43
2020/12/24 00:57:49;;;;;;;0.50;0.50;;;21.20;58.20;;;;;;5031397;28;20100;-56
2020/12/24 01:00:14;;;;;;;0.80;0.50;;;21.20;58.10;;;;;;5031680;28;20550;-62
2020/12/24 01:02:40;;;;;;;0.70;0.40;;;21.20;58.10;;;;;;5031593;28;20056;-54
2020/12/24 01:05:06;;;;;;;1.13;0.50;;;21.10;58.00;;;;;;5030110;28;20363;-41
2020/12/24 01:07:33;;;;;;;1.52;0.60;;;21.10;58.00;;;;;;5030352;28;20034;-43
2020/12/24 01:09:58;;;;;;;0.88;0.55;;;21.20;58.00;;;;;;5031146;28;20025;-49
2020/12/24 01:12:24;;;;;;;0.95;0.40;;;21.20;58.00;;;;;;5030794;28;20055;-48
2020/12/24 01:14:50;;;;;;;0.80;0.40;;;21.20;57.90;;;;;;5029652;28;20025;-47
2020/12/24 01:17:15;;;;;;;0.77;0.40;;;21.20;57.80;;;;;;5031213;28;20477;-63
2020/12/24 01:19:41;;;;;;;0.68;0.38;;;21.20;57.70;;;;;;5030811;28;20021;-47
2020/12/24 01:22:07;;;;;;;1.33;0.47;;;21.20;57.70;;;;;;5031043;28;20026;-48
2020/12/24 01:24:32;;;;;;;1.75;0.70;;;21.20;57.70;;;;;;5030211;28;20025;-42
2020/12/24 01:26:58;;;;;;;1.15;0.50;;;21.20;57.70;;;;;;5030939;28;20132;-49
2020/12/24 01:29:23;;;;;;;1.08;0.55;;;21.10;57.60;;;;;;5030441;28;20518;-57
2020/12/24 01:31:50;;;;;;;0.93;0.73;;;21.20;57.60;;;;;;5030789;28;20069;-47
2020/12/24 01:34:17;;;;;;;0.70;0.50;;;21.10;57.50;;;;;;5030930;28;20057;-63
2020/12/24 01:36:43;;;;;;;0.50;0.30;;;21.20;57.60;;;;;;5029595;28;20100;-47
2020/12/24 01:39:10;;;;;;;0.88;0.40;;;21.20;57.60;;;;;;5030877;28;20467;-48
2020/12/24 01:41:36;;;;;;;0.30;0.30;;;21.20;57.50;;;;;;5030277;28;20136;-45
2020/12/24 01:44:01;;;;;;;1.27;0.40;;;21.10;57.50;;;;;;5030912;28;20550;-49
2020/12/24 01:46:27;;;;;;;0.93;0.50;;;21.20;57.50;;;;;;5029902;28;20026;-49
2020/12/24 01:48:53;;;;;;;0.73;0.40;;;21.10;57.50;;;;;;5031027;28;20026;-41
2020/12/24 01:51:28;;;;;;;1.00;0.50;;;21.10;57.50;;;;;;5029223;28;20091;-47
2020/12/24 01:53:56;;;;;;;0.77;0.47;;;21.10;57.50;;;;;;5031325;28;20022;-49
2020/12/24 01:56:22;;;;;;;1.00;0.40;;;21.10;57.40;;;;;;5030414;28;20026;-48
2020/12/24 01:58:53;;;;;;;1.10;0.45;;;21.10;57.40;;;;;;5031646;28;20025;-45
2020/12/24 02:01:19;;;;;;;0.80;0.50;;;21.10;57.30;;;;;;5030820;28;20033;-48
2020/12/24 02:03:45;;;;;;;1.55;0.50;;;21.10;57.40;;;;;;5033561;28;20083;-63
2020/12/24 02:06:11;;;;;;;0.40;0.30;;;21.10;57.30;;;;;;5034809;28;20018;-55
2020/12/24 02:08:38;;;;;;;1.10;0.40;;;21.10;57.30;;;;;;5033698;28;20028;-39
2020/12/24 02:11:04;;;;;;;1.40;0.40;;;21.10;57.30;;;;;;5034349;28;20087;-48
2020/12/24 02:13:29;;;;;;;2.05;0.93;;;21.10;57.30;;;;;;5034330;28;20026;-48
2020/12/24 02:15:56;;;;;;;0.82;0.40;;;21.10;57.30;;;;;;5034885;28;20033;-49
2020/12/24 02:18:21;;;;;;;1.38;0.60;;;21.10;57.20;;;;;;5034359;28;20052;-48
2020/12/24 02:20:48;;;;;;;1.90;0.40;;;21.10;57.20;;;;;;5034689;28;20034;-55
2020/12/24 02:23:14;;;;;;;1.17;0.40;;;21.10;57.20;;;;;;5034293;28;20245;-61
2020/12/24 02:25:42;;;;;;;0.75;0.50;;;21.10;57.20;;;;;;5033698;28;20100;-42
2020/12/24 02:28:09;;;;;;;0.73;0.32;;;21.00;57.20;;;;;;5034478;28;20036;-58
2020/12/24 02:30:35;;;;;;;0.73;0.38;;;21.10;57.20;;;;;;5033879;28;20033;-48
2020/12/24 02:33:01;;;;;;;0.90;0.57;;;21.10;57.20;;;;;;5034491;28;20103;-48
2020/12/24 02:35:27;;;;;;;1.10;0.22;;;21.10;57.00;;;;;;5033305;28;20088;-48
2020/12/24 02:37:54;;;;;;;1.90;0.50;;;21.10;57.00;;;;;;5034689;28;20116;-48
2020/12/24 02:40:20;;;;;;;1.08;0.50;;;21.00;56.80;;;;;;5033301;28;20493;-47
2020/12/24 02:42:45;;;;;;;1.17;0.40;;;21.00;56.80;;;;;;5034450;28;20029;-41
2020/12/24 02:45:11;;;;;;;0.68;0.50;;;21.10;56.80;;;;;;5034285;28;20450;-46
2020/12/24 02:47:37;;;;;;;0.70;0.30;;;21.00;56.70;;;;;;5032982;28;20919;-45
2020/12/24 02:50:05;;;;;;;0.95;0.40;;;21.10;56.60;;;;;;5034004;28;20119;-48
2020/12/24 02:52:31;;;;;;;2.17;0.40;;;21.10;56.60;;;;;;5031971;28;20025;-48
2020/12/24 02:54:57;;;;;;;0.85;0.50;;;21.10;56.50;;;;;;5034006;28;20477;-59
2020/12/24 02:57:23;;;;;;;0.52;0.38;;;21.10;56.50;;;;;;5033080;28;20022;-47
2020/12/24 02:59:48;;;;;;;1.65;0.50;;;21.10;56.50;;;;;;5034203;28;20049;-54
2020/12/24 03:02:14;;;;;;;1.25;0.43;;;21.00;56.40;;;;;;5033377;28;20077;-60
2020/12/24 03:04:39;;;;;;;0.85;0.40;;;21.00;56.40;;;;;;5033483;28;20064;-48
2020/12/24 03:07:05;;;;;;;1.00;0.30;;;21.00;56.40;;;;;;5020179;28;20041;-52
2020/12/24 03:09:31;;;;;;;1.15;0.38;;;21.00;56.30;;;;;;5013427;28;20178;-49
2020/12/24 03:11:56;;;;;;;0.70;0.30;;;21.00;56.20;;;;;;5014362;28;20120;-48
2020/12/24 03:14:22;;;;;;;0.63;0.40;;;21.00;56.20;;;;;;5012400;28;20118;-39
2020/12/24 03:16:48;;;;;;;1.67;0.40;;;21.00;56.10;;;;;;5013904;28;20057;-52
2020/12/24 03:19:14;;;;;;;2.08;0.43;;;21.00;56.10;;;;;;5013772;28;20041;-50
2020/12/24 03:21:40;;;;;;;1.45;0.60;;;21.00;56.10;;;;;;5013166;28;20038;-47
2020/12/24 03:24:06;;;;;;;0.32;0.30;;;21.00;56.00;;;;;;5028944;28;20037;-47
2020/12/24 03:26:32;;;;;;;1.27;0.90;;;21.00;56.10;;;;;;5012425;28;20026;-45
2020/12/24 03:28:58;;;;;;;0.68;0.38;;;21.00;56.00;;;;;;5013929;28;20030;-46
2020/12/24 03:31:25;;;;;;;0.40;0.35;;;21.00;56.10;;;;;;5012645;28;20037;-50
2020/12/24 03:33:51;;;;;;;0.30;0.30;;;21.00;56.00;;;;;;5013515;28;20037;-44
2020/12/24 03:36:17;;;;;;;2.47;0.43;;;21.00;56.00;;;;;;5012775;28;20056;-64
2020/12/24 03:38:43;;;;;;;0.45;0.40;;;21.00;56.00;;;;;;5013363;28;20109;-48
2020/12/24 03:41:09;;;;;;;0.60;0.40;;;21.00;55.80;;;;;;5013226;28;20543;-59
2020/12/24 03:43:35;;;;;;;0.90;0.52;;;21.00;55.80;;;;;;5012865;28;20134;-48
2020/12/24 03:46:01;;;;;;;1.20;0.68;;;21.00;55.80;;;;;;5013371;28;20096;-48
2020/12/24 03:48:27;;;;;;;0.65;0.30;;;21.00;55.80;;;;;;5012824;28;20029;-49
2020/12/24 03:50:52;;;;;;;0.25;0.20;;;21.00;55.80;;;;;;5013805;28;20474;-57
2020/12/24 03:53:19;;;;;;;2.25;0.30;;;21.00;55.80;;;;;;5012717;28;20146;-62
2020/12/24 03:55:44;;;;;;;0.65;0.30;;;21.00;55.80;;;;;;5011908;28;20472;-45
2020/12/24 03:58:10;;;;;;;2.17;0.50;;;21.00;55.80;;;;;;5013326;28;20037;-39
2020/12/24 04:00:35;;;;;;;0.50;0.40;;;21.00;56.30;;;;;;5012258;28;20087;-48
2020/12/24 04:03:01;;;;;;;1.00;0.35;;;21.00;55.70;;;;;;5012737;28;20037;-55
2020/12/24 04:05:27;;;;;;;1.95;0.52;;;21.00;55.60;;;;;;5011774;28;20030;-58
2020/12/24 04:07:52;;;;;;;1.15;0.38;;;21.00;55.70;;;;;;5031331;28;20033;-47
2020/12/24 04:10:18;;;;;;;0.38;0.20;;;21.00;55.60;;;;;;5032414;28;20475;-62
2020/12/24 04:12:44;;;;;;;5.15;0.40;;;21.00;55.60;;;;;;5032430;28;20479;-48
2020/12/24 04:15:09;;;;;;;0.63;0.30;;;21.00;55.50;;;;;;5031659;28;20033;-48
2020/12/24 04:17:35;;;;;;;0.35;0.32;;;21.00;55.60;;;;;;5032078;28;20496;-48
2020/12/24 04:20:01;;;;;;;1.38;0.80;;;21.00;56.10;;;;;;5032207;28;20029;-48
2020/12/24 04:22:26;;;;;;;2.05;0.28;;;21.00;55.50;;;;;;5031351;28;20036;-47
2020/12/24 04:24:52;;;;;;;0.65;0.30;;;21.00;55.50;;;;;;5031384;28;20098;-51
2020/12/24 04:27:17;;;;;;;0.60;0.40;;;20.90;55.40;;;;;;5030750;28;20060;-63
2020/12/24 04:29:43;;;;;;;0.45;0.25;;;21.00;55.50;;;;;;5032159;28;20025;-47
2020/12/24 04:32:09;;;;;;;0.88;0.43;;;21.00;55.50;;;;;;5032324;28;20433;-57
2020/12/24 04:34:35;;;;;;;0.75;0.40;;;21.00;55.40;;;;;;5031294;28;20064;-55
2020/12/24 04:37:00;;;;;;;1.40;0.40;;;21.00;55.40;;;;;;5031765;28;20041;-49
2020/12/24 04:39:27;;;;;;;1.65;0.50;;;21.00;55.40;;;;;;5031477;28;20075;-49
2020/12/24 04:41:53;;;;;;;0.50;0.30;;;21.00;55.30;;;;;;5032084;28;20044;-47
2020/12/24 04:44:19;;;;;;;0.80;0.30;;;20.90;55.30;;;;;;5031919;28;20366;-63
2020/12/24 04:46:47;;;;;;;1.10;0.50;;;20.90;55.30;;;;;;5031765;28;20029;-60
2020/12/24 04:49:14;;;;;;;0.40;0.40;;;21.00;55.20;;;;;;5032229;28;20030;-40
2020/12/24 04:51:44;;;;;;;0.95;0.38;;;21.00;55.30;;;;;;5031142;28;20373;-63
2020/12/24 04:54:12;;;;;;;1.05;0.40;;;20.90;55.10;;;;;;5032357;28;20029;-39
2020/12/24 04:56:38;;;;;;;0.40;0.20;;;21.00;55.20;;;;;;5031076;28;20569;-47
2020/12/24 04:59:06;;;;;;;3.60;0.40;;;21.00;55.10;;;;;;5031819;28;20032;-49
2020/12/24 05:01:32;;;;;;;0.98;0.40;;;21.00;55.10;;;;;;5030925;28;20098;-43
2020/12/24 05:03:57;;;;;;;1.30;0.40;;;21.00;55.20;;;;;;5031777;28;20120;-44
2020/12/24 05:06:23;;;;;;;1.10;0.35;;;21.00;55.10;;;;;;5030523;28;20048;-45
2020/12/24 05:08:53;;;;;;;0.57;0.30;;;21.00;55.10;;;;;;5032034;28;20018;-49
2020/12/24 05:11:45;;;;;;;1.17;0.40;;;20.90;55.00;;;;;;5031711;28;20362;-63
2020/12/24 05:14:24;;;;;;;0.20;0.20;;;21.00;55.10;;;;;;5029998;28;20029;-47
2020/12/24 05:17:06;;;;;;;1.10;0.40;;;20.90;55.00;;;;;;5030776;28;20042;-45
2020/12/24 05:19:48;;;;;;;0.55;0.50;;;21.00;55.00;;;;;;5031312;28;20105;-57
2020/12/24 05:22:18;;;;;;;1.10;0.38;;;20.90;54.90;;;;;;5031768;28;20033;-49
2020/12/24 05:24:45;;;;;;;0.95;0.30;;;20.90;54.90;;;;;;5030145;28;20069;-45
2020/12/24 05:27:13;;;;;;;0.80;0.30;;;20.90;54.90;;;;;;5031903;28;20060;-47
2020/12/24 05:29:41;;;;;;;0.30;0.30;;;20.90;54.80;;;;;;5030864;28;20033;-47
2020/12/24 05:32:07;;;;;;;2.50;0.50;;;21.00;54.80;;;;;;5031706;28;20030;-39
2020/12/24 05:34:34;;;;;;;0.88;0.40;;;21.00;54.80;;;;;;5030308;28;20375;-41
2020/12/24 05:37:10;;;;;;;1.15;0.35;;;20.90;54.70;;;;;;5031588;28;20058;-47
2020/12/24 05:39:36;;;;;;;1.95;0.52;;;20.90;54.70;;;;;;5034696;28;20116;-40
2020/12/24 05:42:06;;;;;;;0.60;0.30;;;20.90;54.70;;;;;;5035723;28;20117;-45
2020/12/24 05:44:32;;;;;;;2.38;0.40;;;20.90;54.70;;;;;;5034816;28;20140;-46
2020/12/24 05:46:58;;;;;;;0.40;0.30;;;20.90;54.70;;;;;;5035693;28;20052;-61
2020/12/24 05:49:27;;;;;;;2.28;0.40;;;20.90;54.70;;;;;;5034592;28;20471;-57
2020/12/24 05:51:56;;;;;;;0.50;0.30;;;20.90;54.60;;;;;;5035134;28;20065;-41
2020/12/24 05:54:22;;;;;;;0.38;0.30;;;20.90;54.60;;;;;;5034613;28;20026;-51
2020/12/24 05:56:48;;;;;;;0.57;0.40;;;20.90;54.60;;;;;;5035253;28;20470;-55
2020/12/24 05:59:26;;;;;;;0.47;0.30;;;20.90;54.50;;;;;;5035232;28;20040;-45
2020/12/24 06:02:05;;;;;;;0.30;0.25;;;20.90;54.50;;;;;;5035336;28;20035;-49
2020/12/24 06:04:43;;;;;;;1.33;0.40;;;20.90;54.50;;;;;;5034659;28;20037;-43
2020/12/24 06:07:19;;;;;;;0.38;0.30;;;20.90;54.50;;;;;;5034429;28;20021;-40
2020/12/24 06:09:47;;;;;;;1.80;0.38;;;20.90;54.40;;;;;;5034557;28;20018;-51
2020/12/24 06:12:26;;;;;;;1.25;0.40;;;20.90;54.40;;;;;;5034845;28;20025;-47
2020/12/24 06:14:53;;;;;;;0.60;0.30;;;20.90;54.40;;;;;;5034876;28;20029;-55
2020/12/24 06:17:21;;;;;;;1.25;0.20;;;20.90;55.00;;;;;;5034734;28;20026;-62
2020/12/24 06:19:47;;;;;;;0.60;0.30;;;20.90;54.30;;;;;;5034697;28;20030;-48
2020/12/24 06:22:14;;;;;;;2.45;0.68;;;20.90;54.30;;;;;;5034811;28;20033;-44
2020/12/24 06:24:42;;;;;;;1.92;0.32;;;20.90;54.20;;;;;;5033949;28;20025;-42
2020/12/24 06:27:13;;;;;;;1.55;0.35;;;20.90;54.20;;;;;;5034551;28;20021;-52
2020/12/24 06:29:44;;;;;;;0.93;0.47;;;20.90;54.20;;;;;;5032747;28;20079;-42
2020/12/24 06:32:12;;;;;;;0.65;0.35;;;20.90;54.20;;;;;;5034284;28;20037;-41
2020/12/24 06:34:41;;;;;;;0.80;0.30;;;20.90;54.20;;;;;;5033575;28;20769;-42
2020/12/24 06:37:16;;;;;;;1.27;0.47;;;20.90;54.20;;;;;;5034523;28;20049;-47
2020/12/24 06:39:51;;;;;;;0.70;0.40;;;20.90;54.20;;;;;;5033698;28;20033;-61
2020/12/24 06:42:36;;;;;;;1.27;0.40;;;20.90;54.20;;;;;;5034287;28;20048;-48
2020/12/24 06:45:21;;;;;;;0.50;0.20;;;20.90;54.10;;;;;;5034371;28;20034;-42
2020/12/24 06:48:18;;;;;;;1.08;0.40;;;20.80;54.10;;;;;;5034500;28;20104;-47
2020/12/24 06:50:51;;;;;;;1.42;0.40;;;20.90;54.10;;;;;;5032394;28;20096;-60
2020/12/24 06:53:33;;;;;;;0.82;0.30;;;20.90;54.10;;;;;;5034306;28;20021;-44
2020/12/24 06:56:17;;;;;;;;;;;20.90;54.10;;;;;;5034713;28;20030;-47
2020/12/24 06:58:45;;;;;;;1.58;0.50;;;20.90;54.10;;;;;;5033555;28;19924;-51
2020/12/24 07:01:24;;;;;;;0.75;0.20;;;20.90;54.00;;;;;;5033988;28;20037;-54
2020/12/24 07:03:51;;;;;;;0.95;0.40;;;20.90;54.00;;;;;;5033703;28;20086;-50
2020/12/24 07:06:42;;;;;;;0.73;0.30;;;20.90;54.00;;;;;;5034076;28;20427;-61
2020/12/24 07:09:31;;;;;;;0.68;0.20;;;20.90;54.00;;;;;;5033802;28;20025;-48
2020/12/24 07:11:58;;;;;;;1.63;0.60;;;20.90;54.00;;;;;;5033854;28;20037;-46
2020/12/24 07:14:33;;;;;;;0.98;0.40;;;20.90;54.00;;;;;;5033137;28;20037;-50
2020/12/24 07:17:19;;;;;;;1.05;0.50;;;20.90;54.00;;;;;;5033728;28;20559;-40
2020/12/24 07:19:48;;;;;;;1.00;0.40;;;20.90;53.90;;;;;;5033343;28;20025;-40
2020/12/24 07:22:15;;;;;;;1.10;0.50;;;20.90;54.10;;;;;;5033850;28;20039;-44
2020/12/24 07:24:47;;;;;;;1.17;0.30;;;20.90;54.20;;;;;;5032774;28;20021;-59
2020/12/24 07:27:13;;;;;;;0.98;0.52;;;21.00;54.30;;;;;;5033892;28;20056;-47
2020/12/24 07:29:39;;;;;;;1.63;0.40;;;21.00;54.50;;;;;;5033202;28;20091;-48
2020/12/24 07:32:07;;;;;;;1.10;0.45;;;21.00;54.50;;;;;;5030008;28;20466;-48
2020/12/24 07:34:36;;;;;;;1.65;0.50;;;21.00;54.40;;;;;;5032659;28;20036;-48
2020/12/24 07:37:03;;;;;;;6.40;0.65;;;21.00;54.40;;;;;;5033625;28;20041;-47
2020/12/24 07:39:29;;;;;;;1.73;0.50;;;21.00;55.10;;;;;;5032534;28;20029;-47
2020/12/24 07:41:55;;;;;;;1.40;0.30;;;21.00;54.60;;;;;;5033549;28;20025;-54
2020/12/24 07:44:21;;;;;;;2.75;0.50;;;21.00;54.70;;;;;;5033494;28;20044;-54
2020/12/24 07:46:50;;;;;;;5.78;0.90;;;21.00;55.00;;;;;;5032482;28;20021;-48
2020/12/24 07:49:16;;;;;;;1.67;0.50;;;21.00;55.20;;;;;;5033317;28;20033;-42
2020/12/24 07:51:43;;;;;;;4.88;0.60;;;21.10;55.20;;;;;;5032047;28;20087;-56
2020/12/24 07:54:15;;;;;;;2.75;0.70;;;21.10;55.10;;;;;;5031481;28;20135;-52
2020/12/24 07:56:48;;;;;;;3.75;0.55;;;21.20;55.10;;;;;;5031843;28;20033;-53
2020/12/24 07:59:16;;;;;;;1.58;0.47;;;21.20;55.00;;;;;;5032642;28;20036;-54
2020/12/24 08:01:43;;;;;;;2.63;0.88;;;21.20;54.80;;;;;;5031281;28;20030;-54
2020/12/24 08:04:09;;;;;;;3.22;0.50;;;21.20;54.70;;;;;;5031477;28;20428;-51
2020/12/24 08:06:35;;;;;;;4.38;0.60;;;21.30;54.70;;;;;;5031464;28;20149;-58
2020/12/24 08:09:11;;;;;;;3.00;0.90;;;21.30;54.50;;;;;;5030218;28;20025;-50
2020/12/24 08:11:37;;;;;;;4.25;0.95;;;21.30;54.40;;;;;;5029868;28;20031;-60
2020/12/24 08:14:04;;;;;;;11.63;0.70;;;21.30;54.40;;;;;;5027083;28;20116;-54
2020/12/24 08:16:34;;;;;;;3.80;0.73;;;21.40;54.20;;;;;;5029709;28;20021;-57
2020/12/24 08:19:08;;;;;;;6.65;0.70;;;21.40;54.20;;;;;;5030601;28;20036;-49
2020/12/24 08:21:51;;;;;;;2.75;0.73;;;21.40;54.00;;;;;;5030121;28;20033;-58
2020/12/24 08:24:18;;;;;;;1.90;0.60;;;21.50;54.00;;;;;;5030256;28;20080;-55
2020/12/24 08:26:44;;;;;;;10.70;1.95;;;21.50;53.80;;;;;;5026732;28;20074;-47
2020/12/24 08:29:10;;;;;;;4.00;0.90;;;21.60;53.90;;;;;;5030959;28;20390;-56
2020/12/24 08:31:39;;;;;;;2.40;1.00;;;21.60;53.60;;;;;;5029754;28;20025;-54
2020/12/24 08:34:10;;;;;;;3.72;0.70;;;21.60;53.60;;;;;;5028501;28;20029;-50
2020/12/24 08:36:47;;;;;;;3.95;1.63;;;21.60;53.50;;;;;;5029863;28;20107;-54
2020/12/24 08:39:16;;;;;;;2.88;1.10;;;21.70;53.50;;;;;;5029685;28;20102;-52
2020/12/24 08:41:47;;;;;;;5.07;1.08;;;21.70;53.40;;;;;;5029574;28;20032;-53
2020/12/24 08:44:22;;;;;;;5.68;0.70;;;21.70;53.30;;;;;;5030888;28;20041;-51
2020/12/24 08:47:11;;;;;;;3.00;0.98;;;21.70;53.20;;;;;;5027914;28;20381;-47
2020/12/24 08:49:47;;;;;;;4.15;0.80;;;21.70;53.00;;;;;;5028887;28;21495;-62
2020/12/24 08:52:20;;;;;;;5.22;1.27;;;21.70;53.00;;;;;;5028548;28;20025;-55
2020/12/24 08:55:08;;;;;;;3.67;1.13;;;21.70;53.00;;;;;;5031326;28;20033;-57
2020/12/24 08:57:36;;;;;;;4.75;0.98;;;21.70;53.00;;;;;;5030985;28;20029;-56
2020/12/24 09:00:08;;;;;;;5.30;1.85;;;21.70;52.90;;;;;;5032026;28;20029;-47
2020/12/24 09:02:36;;;;;;;3.35;1.17;;;21.70;52.90;;;;;;5030649;28;20040;-55
2020/12/24 09:05:04;;;;;;;2.97;0.95;;;21.70;52.90;;;;;;5031742;28;20029;-55
2020/12/24 09:07:36;;;;;;;4.40;1.00;;;21.70;52.70;;;;;;5031098;28;20414;-55
2020/12/24 09:10:08;;;;;;;6.18;1.33;;;21.70;52.60;;;;;;5032079;28;20403;-61
2020/12/24 09:12:36;;;;;;;4.95;1.10;;;21.80;52.50;;;;;;5030262;28;20029;-58
2020/12/24 09:15:07;;;;;;;5.15;1.20;;;21.80;52.30;;;;;;5031446;28;20544;-58
2020/12/24 09:17:34;;;;;;;4.60;1.10;;;21.80;52.10;;;;;;5031071;28;20056;-59
2020/12/24 09:20:06;;;;;;;3.67;1.23;;;21.80;52.20;;;;;;5030988;28;20121;-54
2020/12/24 09:22:32;;;;;;;3.80;1.65;;;21.80;52.20;;;;;;5026281;28;20120;-55
2020/12/24 09:24:57;;;;;;;5.13;1.20;;;21.70;52.10;;;;;;5030114;28;20121;-44
2020/12/24 09:27:23;;;;;;;4.45;1.08;;;21.70;52.60;;;;;;5031498;28;20060;-49
2020/12/24 09:29:50;;;;;;;2.92;1.10;;;21.70;52.80;;;;;;5029477;28;20021;-45
2020/12/24 09:32:15;;;;;;;3.05;1.17;;;21.70;52.90;;;;;;5028460;28;20045;-45
2020/12/24 09:34:41;;;;;;;3.67;1.58;;;21.70;53.20;;;;;;5031100;28;20060;-45
2020/12/24 09:37:07;;;;;;;5.90;1.05;;;21.70;53.10;;;;;;5032099;28;20057;-46
2020/12/24 09:39:34;;;;;;;2.85;1.35;;;21.70;52.80;;;;;;5030949;28;20522;-46
2020/12/24 09:42:00;;;;;;;3.85;0.98;;;21.70;53.00;;;;;;5031049;28;20038;-45
2020/12/24 09:44:26;;;;;;;3.97;1.13;;;21.70;52.60;;;;;;5029390;28;20025;-51
2020/12/24 09:46:52;;;;;;;3.15;1.13;;;21.70;52.70;;;;;;5024925;28;20072;-45
2020/12/24 09:49:19;;;;;;;5.95;1.10;;;21.70;53.10;;;;;;5030793;28;20026;-50
2020/12/24 09:51:47;;;;;;;6.80;1.40;;;21.80;53.30;;;;;;5031913;28;20427;-48
2020/12/24 09:54:13;;;;;;;10.05;1.40;;;21.80;53.30;;;;;;5031338;28;20069;-51
2020/12/24 09:56:38;;;;;;;4.43;1.05;;;22.10;52.90;;;;;;5030160;28;20085;-46
2020/12/24 09:59:05;;;;;;;9.43;1.10;;;22.40;52.80;;;;;;5031105;28;20025;-47
2020/12/24 10:01:31;;;;;;;8.40;1.27;;;22.40;53.20;;;;;;5028162;28;20029;-53
2020/12/24 10:03:57;;;;;;;15.32;1.20;;;22.40;53.20;;;;;;5030404;28;20038;-48
2020/12/24 10:06:26;;;;;;;7.57;1.50;;;22.30;53.50;;;;;;5029742;28;20036;-48
2020/12/24 10:08:53;;;;;;;6.15;1.33;;;22.30;53.90;;;;;;5029292;28;20032;-49
2020/12/24 10:11:20;;;;;;;4.47;0.80;;;22.20;54.00;;;;;;5031021;28;20052;-43
2020/12/24 10:13:46;;;;;;;4.88;1.27;;;22.20;54.20;;;;;;5029175;28;20021;-49
2020/12/24 10:16:13;;;;;;;7.93;0.90;;;22.20;54.40;;;;;;5031186;28;20044;-46
2020/12/24 10:18:38;;;;;;;4.70;0.93;;;22.20;54.20;;;;;;5030098;28;20522;-44
2020/12/24 10:21:05;;;;;;;2.50;0.70;;;22.10;54.30;;;;;;5031371;28;20125;-45
2020/12/24 10:23:31;;;;;;;4.82;1.00;;;22.20;54.30;;;;;;5031088;28;20026;-49
2020/12/24 10:25:57;;;;;;;4.93;1.08;;;22.10;54.10;;;;;;5033920;28;20026;-48
2020/12/24 10:28:24;;;;;;;4.63;0.93;;;22.10;54.40;;;;;;5035391;28;20026;-47
2020/12/24 10:30:50;;;;;;;3.05;0.80;;;22.10;54.30;;;;;;5033661;28;20030;-46
2020/12/24 10:33:16;;;;;;;4.80;1.00;;;22.20;54.50;;;;;;5034362;28;20469;-51
2020/12/24 10:35:43;;;;;;;4.72;0.93;;;22.20;54.40;;;;;;5033350;28;20060;-50
2020/12/24 10:38:09;;;;;;;4.20;0.85;;;22.20;54.40;;;;;;5034930;28;20064;-42
2020/12/24 10:40:35;;;;;;;6.65;1.25;;;22.20;54.30;;;;;;5034910;28;20034;-49
2020/12/24 10:43:01;;;;;;;7.05;0.82;;;22.10;54.20;;;;;;5033992;28;20057;-48
2020/12/24 10:45:27;;;;;;;4.18;0.93;;;22.10;54.30;;;;;;5033267;28;20075;-47
2020/12/24 10:47:52;;;;;;;7.82;0.90;;;22.10;54.20;;;;;;5033031;28;20033;-46
2020/12/24 10:50:19;;;;;;;8.32;1.30;;;22.00;54.10;;;;;;5033627;28;20055;-47
2020/12/24 10:52:45;;;;;;;6.97;1.10;;;22.10;54.30;;;;;;5033549;28;20029;-46
2020/12/24 10:55:10;;;;;;;8.73;1.13;;;22.00;54.30;;;;;;5034521;28;20479;-46
2020/12/24 10:57:36;;;;;;;9.20;1.55;;;21.90;54.20;;;;;;5033364;28;20033;-46
2020/12/24 11:00:07;;;;;;;6.30;1.27;;;21.90;54.40;;;;;;5034041;28;20096;-46
2020/12/24 11:02:33;;;;;;;7.13;1.30;;;21.80;54.60;;;;;;5033278;28;20060;-53
2020/12/24 11:04:59;;;;;;;10.02;1.98;;;21.80;54.30;;;;;;5033814;28;20061;-46
2020/12/24 11:07:25;;;;;;;5.38;1.88;;;21.80;54.40;;;;;;5034046;28;20489;-48
2020/12/24 11:09:50;;;;;;;14.18;1.50;;;21.70;54.60;;;;;;5033245;28;20581;-46
2020/12/24 11:12:16;;;;;;;6.47;1.42;;;21.70;54.90;;;;;;5033675;28;20039;-48
2020/12/24 11:14:41;;;;;;;9.75;1.42;;;21.70;54.90;;;;;;5032817;28;20108;-47
2020/12/24 11:17:07;;;;;;;20.90;1.20;;;21.70;55.10;;;;;;5033840;28;20156;-47
2020/12/24 11:19:33;;;;;;;6.88;1.75;;;21.70;54.80;;;;;;5032003;28;20036;-53
2020/12/24 11:21:58;;;;;;;6.18;1.00;;;21.70;54.90;;;;;;5033385;28;20022;-47
2020/12/24 11:24:24;;;;;;;7.60;1.27;;;21.60;54.90;;;;;;5033829;28;20546;-47
2020/12/24 11:26:50;;;;;;;4.93;1.10;;;21.60;55.00;;;;;;5032779;28;20030;-46
2020/12/24 11:29:15;;;;;;;6.18;1.17;;;21.60;55.20;;;;;;5033398;28;20048;-46
2020/12/24 11:31:41;;;;;;;6.93;2.08;;;21.60;55.30;;;;;;5032806;28;20057;-47
2020/12/24 11:34:07;;;;;;;41.70;2.88;;;21.60;55.70;;;;;;5033285;28;20029;-54
2020/12/24 11:36:33;;;;;;;3.80;0.90;;;21.70;56.40;;;;;;5032270;28;20356;-66
2020/12/24 11:38:59;;;;;;;12.25;1.40;;;21.70;56.10;;;;;;5033122;28;20029;-53
2020/12/24 11:41:26;;;;;;;6.85;1.30;;;21.70;56.00;;;;;;5033573;28;20387;-50
2020/12/24 11:43:53;;;;;;;3.53;1.20;;;21.60;55.70;;;;;;5031126;28;20025;-48
2020/12/24 11:46:21;;;;;;;8.90;1.15;;;21.60;56.00;;;;;;5033541;28;20057;-48
2020/12/24 11:48:49;;;;;;;6.10;0.85;;;21.50;56.60;;;;;;5032739;28;20104;-48
2020/12/24 11:51:15;;;;;;;7.63;1.30;;;21.50;56.30;;;;;;5033246;28;20033;-48
2020/12/24 11:53:42;;;;;;;6.80;1.50;;;21.60;56.10;;;;;;5032342;28;20356;-53
2020/12/24 11:56:21;;;;;;;4.50;1.20;;;21.60;56.20;;;;;;5033295;28;20025;-49
2020/12/24 11:58:48;;;;;;;8.20;2.28;;;21.80;56.20;;;;;;5032282;28;20034;-49
2020/12/24 12:01:18;;;;;;;4.78;1.15;;;22.00;55.80;;;;;;5032968;28;20033;-55
2020/12/24 12:03:45;;;;;;;9.10;1.60;;;22.40;54.90;;;;;;5031916;28;20483;-48
2020/12/24 12:06:11;;;;;;;10.65;1.95;;;22.30;55.50;;;;;;5031763;28;20022;-54
2020/12/24 12:08:37;;;;;;;8.52;1.60;;;22.10;55.30;;;;;;5032313;28;20033;-45
2020/12/24 12:11:04;;;;;;;6.97;1.65;;;22.00;56.00;;;;;;5032765;28;20122;-48
2020/12/24 12:13:31;;;;;;;17.25;2.30;;;21.80;56.80;;;;;;5033335;28;20033;-53
2020/12/24 12:15:56;;;;;;;16.52;2.03;;;21.70;56.50;;;;;;5032297;28;20029;-50
2020/12/24 12:18:23;;;;;;;20.25;2.58;;;21.50;53.00;;;;;;5032779;28;20467;-48
2020/12/24 12:20:49;;;;;;;18.45;1.92;;;21.50;54.60;;;;;;5032154;28;20032;-48
2020/12/24 12:23:15;;;;;;;16.17;2.53;;;21.50;55.50;;;;;;5032364;28;20113;-46
2020/12/24 12:25:41;;;;;;;21.92;3.72;;;21.60;56.30;;;;;;5031286;28;20112;-48
2020/12/24 12:28:06;;;;;;;16.60;3.53;;;21.60;56.20;;;;;;5031433;28;20492;-56
2020/12/24 12:30:32;;;;;;;13.95;3.35;;;21.60;56.60;;;;;;5031641;28;20426;-60
2020/12/24 12:32:58;;;;;;;15.15;2.20;;;21.60;56.50;;;;;;5031905;28;20021;-47
2020/12/24 12:35:24;;;;;;;18.60;3.13;;;21.60;56.50;;;;;;5032147;28;20228;-53
2020/12/24 12:37:50;;;;;;;16.50;2.28;;;21.60;56.40;;;;;;5031408;28;20554;-57
2020/12/24 12:40:16;;;;;;;16.80;3.10;;;21.60;56.40;;;;;;5032468;28;20032;-46
2020/12/24 12:42:42;;;;;;;8.00;1.90;;;21.70;56.20;;;;;;5046641;28;20037;-64
2020/12/24 12:45:08;;;;;;;11.27;1.95;;;21.70;56.00;;;;;;5032319;28;20060;-48
2020/12/24 12:47:40;;;;;;;20.15;3.70;;;21.70;55.80;;;;;;5031372;28;20515;-60
2020/12/24 12:50:09;;;;;;;11.77;2.30;;;21.70;56.00;;;;;;5032208;28;20120;-49